Time;durP1;ratioP1;P1;durP2;ratioP2;P2;SDS_P1;SDS_P2;PMS_P1;PMS_P2;Temp;Humidity;BMP_temperature;BMP_pressure;BME280_temperature;BME280_humidity;BME280_pressure;Samples;Min_cycle;Max_cycle;Signal;HPM_P1;HPM_P2
2022/11/29 00:01:20;;;;;;;47.80;26.50;;;3.80;99.90;;;;;;5094843;28;20191;-80
2022/11/29 00:03:47;;;;;;;44.73;25.73;;;3.80;99.90;;;;;;5094785;28;20202;-80
2022/11/29 00:06:16;;;;;;;47.03;25.97;;;3.80;99.90;;;;;;5094783;28;20191;-81
2022/11/29 00:08:43;;;;;;;46.87;25.77;;;3.80;99.90;;;;;;5093911;28;20195;-80
2022/11/29 00:11:12;;;;;;;46.77;24.30;;;3.90;99.90;;;;;;5094562;28;20264;-80
2022/11/29 00:13:39;;;;;;;45.73;24.90;;;3.90;99.90;;;;;;5094067;28;20214;-79
2022/11/29 00:16:10;;;;;;;42.27;25.07;;;3.90;99.90;;;;;;5094890;28;20187;-82
2022/11/29 00:18:38;;;;;;;45.07;24.07;;;3.90;99.90;;;;;;5094316;28;20629;-82
2022/11/29 00:21:06;;;;;;;40.70;21.80;;;3.90;99.90;;;;;;5094400;28;20199;-82
2022/11/29 00:23:33;;;;;;;46.73;26.07;;;3.90;99.90;;;;;;5094322;28;20712;-81
2022/11/29 00:26:03;;;;;;;40.67;22.60;;;3.90;99.90;;;;;;5094385;28;20283;-80
2022/11/29 00:28:30;;;;;;;45.23;25.40;;;3.90;99.90;;;;;;5094629;28;20179;-80
2022/11/29 00:30:57;;;;;;;47.20;25.50;;;3.90;99.90;;;;;;5094351;28;20980;-82
2022/11/29 00:33:26;;;;;;;46.97;26.47;;;3.90;99.90;;;;;;5094118;28;20222;-80
2022/11/29 00:35:53;;;;;;;50.50;26.30;;;3.80;99.90;;;;;;5094136;28;20260;-81
2022/11/29 00:38:20;;;;;;;48.83;26.23;;;3.80;99.90;;;;;;5093844;28;20564;-82
2022/11/29 00:40:51;;;;;;;45.17;22.97;;;3.70;99.90;;;;;;5093486;28;20187;-80
2022/11/29 00:43:18;;;;;;;47.87;25.63;;;3.60;99.90;;;;;;5093762;28;20214;-80
2022/11/29 00:45:45;;;;;;;45.03;24.67;;;3.60;1.00;;;;;;5093852;28;20298;-81
2022/11/29 00:48:12;;;;;;;49.60;26.20;;;3.70;1.00;;;;;;5093706;28;20198;-80
2022/11/29 00:50:41;;;;;;;46.00;25.77;;;3.70;1.00;;;;;;5093996;28;20223;-83
2022/11/29 00:53:08;;;;;;;46.03;26.53;;;3.70;1.00;;;;;;5093655;28;20215;-80
2022/11/29 00:55:35;;;;;;;44.07;25.83;;;3.70;1.00;;;;;;5094076;28;20195;-82
2022/11/29 00:58:02;;;;;;;44.03;24.53;;;3.70;1.00;;;;;;5093798;28;20546;-79
2022/11/29 01:00:29;;;;;;;45.23;25.90;;;3.70;1.00;;;;;;5093242;28;20196;-80
2022/11/29 01:02:56;;;;;;;47.83;26.00;;;3.70;1.00;;;;;;5093385;28;20597;-83
2022/11/29 01:05:24;;;;;;;48.07;24.97;;;3.70;1.00;;;;;;5093342;28;20196;-80
2022/11/29 01:07:52;;;;;;;42.87;21.33;;;3.70;1.00;;;;;;5093402;28;20312;-80
2022/11/29 01:10:19;;;;;;;48.40;24.90;;;3.70;1.00;;;;;;5093504;28;20645;-79
2022/11/29 01:12:46;;;;;;;44.03;25.00;;;3.70;1.00;;;;;;5093396;28;20609;-80
2022/11/29 01:15:13;;;;;;;48.07;25.73;;;3.70;1.00;;;;;;5093472;28;20188;-79
2022/11/29 01:17:41;;;;;;;45.53;25.63;;;3.80;1.00;;;;;;5093291;28;20195;-80
2022/11/29 01:20:11;;;;;;;44.93;23.53;;;3.70;1.00;;;;;;5093178;28;20198;-79
2022/11/29 01:22:39;;;;;;;54.10;26.00;;;3.70;1.00;;;;;;5093612;28;20183;-80
2022/11/29 01:25:09;;;;;;;49.67;24.07;;;3.70;99.90;;;;;;5093517;28;20221;-81
2022/11/29 01:27:36;;;;;;;44.90;24.53;;;3.60;1.00;;;;;;5093316;28;20202;-80
2022/11/29 01:30:04;;;;;;;41.77;22.10;;;3.50;1.00;;;;;;5092750;28;20260;-80
2022/11/29 01:32:31;;;;;;;39.37;20.60;;;3.50;1.00;;;;;;5093259;28;20195;-82
2022/11/29 01:34:58;;;;;;;42.37;23.07;;;3.40;1.00;;;;;;5092969;28;20635;-80
2022/11/29 01:37:25;;;;;;;43.03;23.47;;;3.40;1.00;;;;;;5092575;28;20202;-82
2022/11/29 01:39:52;;;;;;;49.87;25.67;;;3.40;1.00;;;;;;5093015;28;20199;-80
2022/11/29 01:42:21;;;;;;;51.43;25.87;;;3.30;1.00;;;;;;5092634;28;20241;-80
2022/11/29 01:45:04;;;;;;;48.67;26.33;;;3.30;1.00;;;;;;5092492;28;20655;-80
2022/11/29 01:47:31;;;;;;;46.60;25.10;;;3.30;45.60;;;;;;5092877;28;20175;-81
2022/11/29 01:49:59;;;;;;;48.20;24.70;;;3.30;1.00;;;;;;5092329;28;20223;-79
2022/11/29 01:52:30;;;;;;;42.97;22.50;;;3.30;1.00;;;;;;5092489;28;20648;-80
2022/11/29 01:55:00;;;;;;;48.53;24.57;;;3.20;1.00;;;;;;5092402;28;20199;-82
2022/11/29 01:57:30;;;;;;;49.27;24.87;;;3.20;1.00;;;;;;5092687;28;20183;-82
2022/11/29 02:00:06;;;;;;;46.63;24.37;;;3.20;1.00;;;;;;5092763;28;20244;-80
2022/11/29 02:02:37;;;;;;;47.57;24.97;;;3.20;1.00;;;;;;5092467;28;20187;-80
2022/11/29 02:05:05;;;;;;;45.70;23.83;;;3.20;1.00;;;;;;5092375;28;20694;-82
2022/11/29 02:07:32;;;;;;;45.80;23.93;;;3.20;3.10;;;;;;5092363;28;20222;-79
2022/11/29 02:09:59;;;;;;;46.57;25.97;;;3.10;98.00;;;;;;5092501;28;20264;-79
2022/11/29 02:12:38;;;;;;;44.43;24.10;;;3.10;99.90;;;;;;5091779;28;20206;-80
2022/11/29 02:15:17;;;;;;;48.27;25.97;;;3.10;99.90;;;;;;5091603;28;20253;-80
2022/11/29 02:18:01;;;;;;;42.50;22.53;;;3.10;99.90;;;;;;5092131;28;20178;-79
2022/11/29 02:21:08;;;;;;;45.53;25.57;;;3.10;99.90;;;;;;5092322;28;20278;-80
2022/11/29 02:24:08;;;;;;;46.57;22.87;;;3.10;99.90;;;;;;5066147;28;20591;-79
2022/11/29 02:27:01;;;;;;;47.00;26.13;;;3.10;99.90;;;;;;5087649;28;20196;-80
2022/11/29 02:30:04;;;;;;;45.07;23.57;;;3.00;30.30;;;;;;5089590;28;20198;-80
2022/11/29 02:32:56;;;;;;;49.30;24.50;;;2.90;73.90;;;;;;5091979;28;20201;-79
2022/11/29 02:35:42;;;;;;;44.83;22.93;;;2.80;16.50;;;;;;5092214;28;20606;-79
2022/11/29 02:38:33;;;;;;;47.87;24.63;;;2.70;99.90;;;;;;5091643;28;20212;-79
2022/11/29 02:41:21;;;;;;;42.93;23.50;;;2.60;99.90;;;;;;5092219;28;20184;-80
2022/11/29 02:44:08;;;;;;;45.57;24.20;;;2.50;1.00;;;;;;5077528;28;20183;-82
2022/11/29 02:46:56;;;;;;;43.63;23.80;;;2.40;1.00;;;;;;5092180;28;20186;-80
2022/11/29 02:49:40;;;;;;;38.57;20.87;;;2.30;1.00;;;;;;5071671;28;20317;-80
2022/11/29 02:52:15;;;;;;;48.00;23.50;;;2.20;1.00;;;;;;5071566;28;20180;-82
2022/11/29 02:54:48;;;;;;;45.53;23.53;;;2.20;1.00;;;;;;5072074;28;20282;-79
2022/11/29 02:57:25;;;;;;;50.97;25.47;;;2.10;99.90;;;;;;5072184;28;20215;-79
2022/11/29 02:59:59;;;;;;;47.37;24.50;;;2.10;99.90;;;;;;5071901;28;20236;-81
2022/11/29 03:02:32;;;;;;;49.93;24.97;;;2.00;99.90;;;;;;5071506;28;20183;-79
2022/11/29 03:05:09;;;;;;;49.23;23.87;;;2.00;1.00;;;;;;5071728;28;20189;-79
2022/11/29 03:07:47;;;;;;;46.20;24.27;;;1.90;1.00;;;;;;5071966;28;20178;-79
2022/11/29 03:10:25;;;;;;;48.40;23.43;;;1.90;1.00;;;;;;5071939;28;20184;-79
2022/11/29 03:12:53;;;;;;;43.00;20.93;;;1.90;1.00;;;;;;5071320;28;20182;-80
2022/11/29 03:15:28;;;;;;;50.70;26.03;;;1.90;1.00;;;;;;5090893;28;20219;-80
2022/11/29 03:18:21;;;;;;;47.40;23.87;;;1.90;1.00;;;;;;5091861;28;20191;-80
2022/11/29 03:21:04;;;;;;;46.43;23.67;;;1.90;1.00;;;;;;5091751;28;20183;-80
2022/11/29 03:23:36;;;;;;;50.43;24.97;;;1.80;1.00;;;;;;5091499;28;20211;-79
2022/11/29 03:26:08;;;;;;;49.57;23.73;;;1.80;1.00;;;;;;5092303;28;20176;-79
2022/11/29 03:28:41;;;;;;;45.43;24.23;;;1.80;1.00;;;;;;5095611;28;20180;-80
2022/11/29 03:31:14;;;;;;;49.77;25.30;;;1.90;1.00;;;;;;5095482;28;20570;-79
2022/11/29 03:33:49;;;;;;;49.87;25.00;;;2.00;1.00;;;;;;5094847;28;20677;-79
2022/11/29 03:36:25;;;;;;;49.97;24.53;;;2.20;1.00;;;;;;5095398;28;20184;-81
2022/11/29 03:38:56;;;;;;;52.87;25.03;;;2.20;1.00;;;;;;5095196;28;20240;-79
2022/11/29 03:41:28;;;;;;;50.93;27.30;;;2.30;99.90;;;;;;5095126;28;20189;-82
2022/11/29 03:44:01;;;;;;;49.20;24.83;;;2.40;99.90;;;;;;5095221;28;20277;-80
2022/11/29 03:46:33;;;;;;;50.50;23.50;;;2.50;99.90;;;;;;5094940;28;20241;-81
2022/11/29 03:49:03;;;;;;;49.17;24.63;;;2.60;99.90;;;;;;5095009;28;20178;-80
2022/11/29 03:51:49;;;;;;;46.70;22.87;;;2.70;1.00;;;;;;5094322;28;20189;-80
2022/11/29 03:54:22;;;;;;;47.43;23.90;;;2.70;1.00;;;;;;5094946;28;20202;-82
2022/11/29 03:56:49;;;;;;;46.20;24.60;;;2.70;1.00;;;;;;5095134;28;20185;-79
2022/11/29 03:59:29;;;;;;;47.47;24.97;;;2.80;1.00;;;;;;5095297;28;20194;-82
2022/11/29 04:02:41;;;;;;;51.80;24.80;;;2.80;1.00;;;;;;5094433;28;20186;-79
2022/11/29 04:05:34;;;;;;;49.27;23.80;;;2.80;1.00;;;;;;5084479;28;20716;-79
2022/11/29 04:08:27;;;;;;;45.30;23.90;;;2.90;1.00;;;;;;5095240;28;20184;-81
2022/11/29 04:11:28;;;;;;;45.07;23.03;;;2.90;1.00;;;;;;5094617;28;20213;-80
2022/11/29 04:14:27;;;;;;;48.63;24.93;;;2.90;1.00;;;;;;5090450;28;20702;-80
2022/11/29 04:17:19;;;;;;;39.20;18.97;;;3.00;99.90;;;;;;5094065;28;20260;-79
2022/11/29 04:20:19;;;;;;;47.30;23.83;;;3.00;99.90;;;;;;5094785;28;20233;-81
2022/11/29 04:23:18;;;;;;;46.50;22.90;;;3.00;99.90;;;;;;5095166;28;20175;-81
2022/11/29 04:26:10;;;;;;;43.03;21.60;;;3.00;99.90;;;;;;5084521;28;20274;-80
2022/11/29 04:28:59;;;;;;;44.63;22.30;;;3.00;99.90;;;;;;5082941;28;20207;-79
2022/11/29 04:31:37;;;;;;;37.30;18.77;;;3.10;99.90;;;;;;5094472;28;20192;-79
2022/11/29 04:34:34;;;;;;;45.43;22.03;;;3.10;99.90;;;;;;5094060;28;20206;-80
2022/11/29 04:37:16;;;;;;;43.70;22.77;;;3.10;99.90;;;;;;5093671;28;20186;-82
2022/11/29 04:40:03;;;;;;;44.63;22.13;;;3.20;99.90;;;;;;5093993;28;20187;-79
2022/11/29 04:42:54;;;;;;;47.33;23.37;;;3.20;99.90;;;;;;5094555;28;20221;-82
2022/11/29 04:45:45;;;;;;;37.40;18.73;;;3.20;99.90;;;;;;5094029;28;20179;-80
2022/11/29 04:48:31;;;;;;;40.27;21.40;;;3.30;99.90;;;;;;5093959;28;20187;-80
2022/11/29 04:51:13;;;;;;;42.33;22.63;;;3.30;99.90;;;;;;5093434;28;20227;-79
2022/11/29 04:53:49;;;;;;;45.47;23.07;;;3.30;99.90;;;;;;5094064;28;20229;-79
2022/11/29 04:56:26;;;;;;;44.03;22.17;;;3.30;99.90;;;;;;5094074;28;20184;-80
2022/11/29 04:59:01;;;;;;;39.40;20.97;;;3.30;52.20;;;;;;5093780;28;20232;-82
2022/11/29 05:01:36;;;;;;;37.03;19.97;;;3.40;20.50;;;;;;5093324;28;20194;-81
2022/11/29 05:04:13;;;;;;;42.10;21.90;;;3.40;1.00;;;;;;5094031;28;20228;-80
2022/11/29 05:06:50;;;;;;;35.90;19.37;;;3.30;1.00;;;;;;5093681;28;20645;-80
2022/11/29 05:09:27;;;;;;;44.27;22.97;;;3.40;1.00;;;;;;5093402;28;20187;-80
2022/11/29 05:12:03;;;;;;;27.93;15.17;;;3.40;1.00;;;;;;5094822;28;20221;-82
2022/11/29 05:14:50;;;;;;;38.67;19.87;;;3.40;1.00;;;;;;5092885;28;20234;-82
2022/11/29 05:17:40;;;;;;;42.67;22.53;;;3.40;1.00;;;;;;5093316;28;20175;-79
2022/11/29 05:20:34;;;;;;;42.37;21.40;;;3.40;1.00;;;;;;5092391;28;20180;-81
2022/11/29 05:23:29;;;;;;;37.23;19.57;;;3.30;1.00;;;;;;5092854;28;20186;-79
2022/11/29 05:26:04;;;;;;;43.50;22.03;;;3.30;1.00;;;;;;5082752;28;20284;-79
2022/11/29 05:28:38;;;;;;;43.47;22.47;;;3.30;1.00;;;;;;5093372;28;20228;-80
2022/11/29 05:31:29;;;;;;;39.73;21.70;;;3.40;1.00;;;;;;5093466;28;20184;-79
2022/11/29 05:34:25;;;;;;;41.07;22.73;;;3.30;1.00;;;;;;5093066;28;20198;-81
2022/11/29 05:37:01;;;;;;;40.73;22.17;;;3.40;1.00;;;;;;5088497;28;20248;-79
2022/11/29 05:39:41;;;;;;;43.17;21.33;;;3.40;1.00;;;;;;5093077;28;20240;-80
2022/11/29 05:42:35;;;;;;;41.73;22.50;;;3.30;1.00;;;;;;5093277;28;20228;-80
2022/11/29 05:45:08;;;;;;;40.00;21.30;;;3.30;1.00;;;;;;5093155;28;20228;-82
2022/11/29 05:47:42;;;;;;;42.67;23.13;;;3.30;1.00;;;;;;5092890;28;20236;-79
2022/11/29 05:50:16;;;;;;;45.47;23.33;;;3.30;1.00;;;;;;5092084;28;20227;-79
2022/11/29 05:52:50;;;;;;;41.80;19.80;;;3.30;1.00;;;;;;5093093;28;20187;-82
2022/11/29 05:55:27;;;;;;;45.13;23.57;;;3.30;1.00;;;;;;5091819;28;20206;-81
2022/11/29 05:57:59;;;;;;;46.30;23.63;;;3.20;1.00;;;;;;5093105;28;20188;-79
2022/11/29 06:00:32;;;;;;;43.13;22.20;;;3.20;1.00;;;;;;5092788;28;20565;-80
2022/11/29 06:03:10;;;;;;;38.83;20.03;;;3.20;1.00;;;;;;5092455;28;20193;-79
2022/11/29 06:05:45;;;;;;;40.77;22.80;;;3.10;1.00;;;;;;5092462;28;20179;-79
2022/11/29 06:08:20;;;;;;;38.07;19.23;;;3.20;1.00;;;;;;5092893;28;20193;-81
2022/11/29 06:10:57;;;;;;;39.47;22.30;;;3.10;1.00;;;;;;5092633;28;20182;-79
2022/11/29 06:13:38;;;;;;;42.10;22.73;;;3.20;1.00;;;;;;5092503;28;20225;-82
2022/11/29 06:16:37;;;;;;;39.60;20.93;;;3.20;1.00;;;;;;5091748;28;20202;-80
2022/11/29 06:19:43;;;;;;;35.63;19.30;;;3.30;1.00;;;;;;5093289;28;20190;-80
2022/11/29 06:22:39;;;;;;;38.40;20.43;;;3.30;1.00;;;;;;5092228;28;20240;-79
2022/11/29 06:25:19;;;;;;;41.37;20.83;;;3.40;1.00;;;;;;5089956;28;20190;-79
2022/11/29 06:28:15;;;;;;;39.83;19.67;;;3.40;1.00;;;;;;5072535;28;20180;-79
2022/11/29 06:30:59;;;;;;;39.77;22.13;;;3.40;1.00;;;;;;5092086;28;20180;-87
2022/11/29 06:33:32;;;;;;;43.00;21.87;;;3.50;1.00;;;;;;5091616;28;20183;-79
2022/11/29 06:36:12;;;;;;;43.50;22.10;;;3.50;1.00;;;;;;5091486;28;20711;-83
2022/11/29 06:38:40;;;;;;;44.10;22.27;;;3.50;1.00;;;;;;5092323;28;20233;-84
2022/11/29 06:41:13;;;;;;;39.43;22.57;;;3.50;99.90;;;;;;5092397;28;20225;-79
2022/11/29 06:43:40;;;;;;;41.90;22.07;;;3.60;99.90;;;;;;5092573;28;20182;-82
2022/11/29 06:46:14;;;;;;;45.43;23.60;;;3.60;99.90;;;;;;5092545;28;20249;-79
2022/11/29 06:48:49;;;;;;;40.50;21.27;;;3.60;99.90;;;;;;5092218;28;20186;-83
2022/11/29 06:51:27;;;;;;;41.63;22.47;;;3.60;99.90;;;;;;5091146;28;20198;-80
2022/11/29 06:54:02;;;;;;;40.87;22.57;;;3.60;99.90;;;;;;5092116;28;20186;-79
2022/11/29 06:56:35;;;;;;;41.87;22.07;;;3.60;99.90;;;;;;5092041;28;20607;-84
2022/11/29 06:59:12;;;;;;;44.33;22.17;;;3.60;99.90;;;;;;5091102;28;20179;-80
2022/11/29 07:01:45;;;;;;;43.70;23.17;;;3.70;99.90;;;;;;5092311;28;20229;-79
2022/11/29 07:04:27;;;;;;;42.30;22.57;;;3.70;99.90;;;;;;5095992;28;20184;-79
2022/11/29 07:06:56;;;;;;;36.20;18.87;;;3.70;99.90;;;;;;5096674;28;20229;-79
2022/11/29 07:09:28;;;;;;;39.97;20.80;;;3.70;73.30;;;;;;5096485;28;20195;-79
2022/11/29 07:11:55;;;;;;;40.47;22.87;;;3.70;11.60;;;;;;5096480;28;20172;-80
2022/11/29 07:14:23;;;;;;;42.27;22.17;;;3.70;1.00;;;;;;5097797;28;20596;-86
2022/11/29 07:17:01;;;;;;;37.93;18.93;;;3.70;1.00;;;;;;5095814;28;20710;-80
2022/11/29 07:19:38;;;;;;;41.63;23.03;;;3.70;1.00;;;;;;5096075;28;20195;-78
2022/11/29 07:22:15;;;;;;;42.10;23.20;;;3.70;1.00;;;;;;5095901;28;20175;-85
2022/11/29 07:24:59;;;;;;;42.27;23.43;;;3.70;1.00;;;;;;5096551;28;20203;-88
2022/11/29 07:27:34;;;;;;;41.23;22.10;;;3.70;1.00;;;;;;5096199;28;20628;-82
2022/11/29 07:30:12;;;;;;;39.57;21.83;;;3.80;1.00;;;;;;5095535;28;20183;-80
2022/11/29 07:32:53;;;;;;;40.57;22.07;;;3.80;1.00;;;;;;5095923;28;20191;-82
2022/11/29 07:35:28;;;;;;;43.40;22.97;;;3.80;1.00;;;;;;5096024;28;20203;-80
2022/11/29 07:38:07;;;;;;;36.87;20.63;;;3.80;1.00;;;;;;5096149;28;20183;-83
2022/11/29 07:40:42;;;;;;;43.77;22.80;;;3.80;1.00;;;;;;5095650;28;20300;-88
2022/11/29 07:43:24;;;;;;;44.03;23.87;;;3.80;1.00;;;;;;5095642;28;20179;-80
2022/11/29 07:45:51;;;;;;;42.87;21.37;;;3.90;1.00;;;;;;5095314;28;20224;-81
2022/11/29 07:48:18;;;;;;;43.03;22.23;;;3.90;1.00;;;;;;5096118;28;20206;-87
2022/11/29 07:50:46;;;;;;;45.80;23.73;;;4.00;1.00;;;;;;5095052;28;20235;-80
2022/11/29 07:53:16;;;;;;;39.47;21.83;;;4.00;1.00;;;;;;5095304;28;20249;-80
2022/11/29 07:55:44;;;;;;;47.17;24.00;;;4.10;1.00;;;;;;5095354;28;20199;-80
2022/11/29 07:58:12;;;;;;;42.13;23.27;;;4.10;1.00;;;;;;5095265;28;20206;-80
2022/11/29 08:00:40;;;;;;;42.13;22.33;;;4.10;99.90;;;;;;5095341;28;20191;-80
2022/11/29 08:03:08;;;;;;;43.77;23.00;;;4.10;99.90;;;;;;5095002;28;20665;-85
2022/11/29 08:05:35;;;;;;;43.97;23.90;;;4.10;99.90;;;;;;5094987;28;20236;-79
2022/11/29 08:08:02;;;;;;;41.33;23.43;;;4.10;99.90;;;;;;5095223;28;20191;-81
2022/11/29 08:10:31;;;;;;;35.93;18.37;;;4.10;99.90;;;;;;5094257;28;20710;-84
2022/11/29 08:12:58;;;;;;;43.13;23.97;;;4.20;99.90;;;;;;5094690;28;20248;-80
2022/11/29 08:15:25;;;;;;;42.00;21.20;;;4.30;99.90;;;;;;5094899;28;20211;-80
2022/11/29 08:17:53;;;;;;;43.90;23.53;;;4.30;99.90;;;;;;5094755;28;20593;-81
2022/11/29 08:20:20;;;;;;;47.00;24.90;;;4.30;99.90;;;;;;5095633;28;20613;-83
2022/11/29 08:22:54;;;;;;;44.07;23.57;;;4.40;99.90;;;;;;5094963;28;20188;-80
2022/11/29 08:25:21;;;;;;;44.17;24.67;;;4.40;99.90;;;;;;5094896;28;20172;-81
2022/11/29 08:27:50;;;;;;;46.23;24.33;;;4.40;88.10;;;;;;5094856;28;20241;-80
2022/11/29 08:30:21;;;;;;;39.40;23.33;;;4.40;11.70;;;;;;5094817;28;20195;-80
2022/11/29 08:32:49;;;;;;;45.50;24.63;;;4.40;7.80;;;;;;5094339;28;20545;-84
2022/11/29 08:35:16;;;;;;;44.10;25.03;;;4.50;1.00;;;;;;5095097;28;20692;-81
2022/11/29 08:37:44;;;;;;;44.33;23.47;;;4.60;1.00;;;;;;5095066;28;20681;-85
2022/11/29 08:40:12;;;;;;;41.97;23.77;;;4.60;1.00;;;;;;5094529;28;20203;-81
2022/11/29 08:42:39;;;;;;;45.53;24.43;;;4.70;1.00;;;;;;5094441;28;20218;-78
2022/11/29 08:45:09;;;;;;;43.13;25.03;;;4.70;1.00;;;;;;5094318;28;20241;-78
2022/11/29 08:47:36;;;;;;;44.30;24.63;;;4.70;1.00;;;;;;5094062;28;20638;-78
2022/11/29 08:50:05;;;;;;;47.60;25.07;;;4.70;1.00;;;;;;5093856;28;20250;-78
2022/11/29 08:55:19;;;;;;;47.33;24.50;;;4.70;1.00;;;;;;5093978;28;20677;-78
2022/11/29 08:57:47;;;;;;;41.83;23.13;;;4.70;1.00;;;;;;5094114;28;20202;-78
2022/11/29 09:00:16;;;;;;;45.73;23.30;;;4.80;1.00;;;;;;5094038;28;20272;-80
2022/11/29 09:02:43;;;;;;;44.07;24.90;;;4.80;1.00;;;;;;5094126;28;20249;-81
2022/11/29 09:05:11;;;;;;;40.33;21.93;;;4.80;1.00;;;;;;5093665;28;20675;-81
2022/11/29 09:07:38;;;;;;;43.50;24.43;;;4.80;1.00;;;;;;5093678;28;20195;-78
2022/11/29 09:10:07;;;;;;;45.27;25.67;;;4.80;99.90;;;;;;5093515;28;20717;-80
2022/11/29 09:12:36;;;;;;;38.17;19.90;;;4.80;99.90;;;;;;5093758;28;20195;-78
2022/11/29 09:15:04;;;;;;;42.30;23.90;;;4.90;99.90;;;;;;5093346;28;20200;-78
2022/11/29 09:17:32;;;;;;;44.00;25.93;;;4.90;99.90;;;;;;5093638;28;20254;-79
2022/11/29 09:19:59;;;;;;;44.83;25.17;;;4.90;99.90;;;;;;5093970;28;20195;-78
2022/11/29 09:22:26;;;;;;;46.03;26.03;;;5.00;99.90;;;;;;5093708;28;20196;-78
2022/11/29 09:24:53;;;;;;;49.40;27.60;;;5.10;99.90;;;;;;5093603;28;20204;-84
2022/11/29 09:27:20;;;;;;;44.13;26.03;;;5.10;99.90;;;;;;5093315;28;20684;-78
2022/11/29 09:29:47;;;;;;;46.47;25.93;;;5.20;99.90;;;;;;5093515;28;20203;-78
2022/11/29 09:32:14;;;;;;;44.97;24.50;;;5.30;99.90;;;;;;5093175;28;20683;-80
2022/11/29 09:34:43;;;;;;;46.73;26.37;;;5.30;91.70;;;;;;5093076;28;20618;-80
2022/11/29 09:37:10;;;;;;;45.93;26.57;;;5.30;85.90;;;;;;5093075;28;20217;-78
2022/11/29 09:39:37;;;;;;;44.30;25.20;;;5.30;4.70;;;;;;5092908;28;20661;-83
2022/11/29 09:42:27;;;;;;;47.93;25.70;;;5.40;1.00;;;;;;5079698;28;20197;-78
2022/11/29 09:45:02;;;;;;;48.90;27.20;;;5.40;1.00;;;;;;5072240;28;20632;-81
2022/11/29 09:47:49;;;;;;;45.67;25.57;;;5.40;1.00;;;;;;5074371;28;20188;-82
2022/11/29 09:50:41;;;;;;;46.87;26.37;;;5.40;1.00;;;;;;5090035;28;20229;-80
2022/11/29 09:53:31;;;;;;;44.37;26.07;;;5.40;1.00;;;;;;5092899;28;20638;-79
2022/11/29 09:56:11;;;;;;;49.40;25.67;;;5.40;1.00;;;;;;5092953;28;20225;-79
2022/11/29 09:58:43;;;;;;;44.00;25.97;;;5.50;1.00;;;;;;5092998;28;20184;-84
2022/11/29 10:01:19;;;;;;;47.17;26.90;;;5.60;1.00;;;;;;5092699;28;20582;-79
2022/11/29 10:03:51;;;;;;;46.87;27.20;;;5.60;1.00;;;;;;5092665;28;20179;-79
2022/11/29 10:06:23;;;;;;;42.07;25.10;;;5.70;1.00;;;;;;5092699;28;20177;-79
2022/11/29 10:08:53;;;;;;;44.37;26.80;;;5.80;1.00;;;;;;5089550;28;20202;-82
2022/11/29 10:11:26;;;;;;;44.93;24.83;;;5.80;1.00;;;;;;5091919;28;20212;-81
2022/11/29 10:13:59;;;;;;;48.03;26.70;;;5.90;1.00;;;;;;5087120;28;20198;-79
2022/11/29 10:16:40;;;;;;;45.63;26.03;;;5.90;1.00;;;;;;5086416;28;20209;-79
2022/11/29 10:19:15;;;;;;;43.63;25.23;;;6.00;1.00;;;;;;5087114;28;20246;-79
2022/11/29 10:21:56;;;;;;;43.23;24.73;;;6.00;1.00;;;;;;5087664;28;20197;-79
2022/11/29 10:24:24;;;;;;;44.40;25.20;;;6.20;99.90;;;;;;5090065;28;20263;-79
2022/11/29 10:26:52;;;;;;;46.70;24.23;;;6.20;99.90;;;;;;5091173;28;20606;-79
2022/11/29 10:29:19;;;;;;;47.60;25.50;;;6.10;99.90;;;;;;5083307;28;20643;-79
2022/11/29 10:31:48;;;;;;;43.83;25.70;;;6.10;99.90;;;;;;5090347;28;20288;-79
2022/11/29 10:34:17;;;;;;;45.80;25.00;;;6.00;99.90;;;;;;5091933;28;20197;-79
2022/11/29 10:36:49;;;;;;;45.13;27.40;;;5.90;99.90;;;;;;5090326;28;20706;-79
2022/11/29 10:39:21;;;;;;;45.90;25.90;;;5.90;99.90;;;;;;5078375;28;20204;-79
2022/11/29 10:41:53;;;;;;;46.20;27.10;;;5.70;99.90;;;;;;5091268;28;20644;-82
2022/11/29 10:44:20;;;;;;;44.33;26.13;;;5.70;99.90;;;;;;5077037;28;20655;-79
2022/11/29 10:46:47;;;;;;;46.83;25.77;;;5.70;99.90;;;;;;5083474;28;20557;-81
2022/11/29 10:49:17;;;;;;;49.73;28.17;;;5.70;99.90;;;;;;5081297;28;20227;-81
2022/11/29 10:51:47;;;;;;;46.00;26.90;;;5.80;99.90;;;;;;5086111;28;20654;-81
2022/11/29 10:54:31;;;;;;;46.97;26.07;;;5.90;99.90;;;;;;5076939;28;20253;-79
2022/11/29 10:57:01;;;;;;;45.53;25.60;;;5.90;99.90;;;;;;5085972;28;20259;-79
2022/11/29 10:59:31;;;;;;;46.33;26.67;;;5.90;99.90;;;;;;5078831;28;20218;-80
2022/11/29 11:01:59;;;;;;;48.53;26.43;;;5.90;98.40;;;;;;5074389;28;20191;-79
2022/11/29 11:04:32;;;;;;;46.07;27.27;;;5.80;99.90;;;;;;5076891;28;20194;-79
2022/11/29 11:07:01;;;;;;;49.13;25.17;;;5.80;99.90;;;;;;5074964;28;20239;-80
2022/11/29 11:09:34;;;;;;;49.90;27.40;;;5.90;99.90;;;;;;5076831;28;20698;-79
2022/11/29 11:12:04;;;;;;;38.77;22.27;;;5.90;85.00;;;;;;5084603;28;20648;-79
2022/11/29 11:14:33;;;;;;;48.23;26.80;;;5.90;87.90;;;;;;5076839;28;20248;-81
2022/11/29 11:17:20;;;;;;;45.77;26.13;;;5.90;93.40;;;;;;5090496;28;20252;-78
2022/11/29 11:19:55;;;;;;;49.33;26.17;;;5.90;84.60;;;;;;5080979;28;20191;-79
2022/11/29 11:22:25;;;;;;;47.10;26.23;;;5.90;34.80;;;;;;5077354;28;20237;-79
2022/11/29 11:24:59;;;;;;;45.80;27.33;;;6.00;1.00;;;;;;5089343;28;20201;-80
2022/11/29 11:27:34;;;;;;;45.70;25.83;;;6.00;1.00;;;;;;5071239;28;20277;-80
2022/11/29 11:30:03;;;;;;;50.50;27.50;;;6.00;1.00;;;;;;5072070;28;20577;-82
2022/11/29 11:32:30;;;;;;;49.40;27.43;;;6.00;1.00;;;;;;5071431;28;20202;-79
2022/11/29 11:34:58;;;;;;;44.43;26.37;;;6.10;1.00;;;;;;5085664;28;20190;-80
2022/11/29 11:37:28;;;;;;;44.13;24.47;;;6.20;1.00;;;;;;5084157;28;20561;-79
2022/11/29 11:39:58;;;;;;;49.40;26.63;;;6.20;1.00;;;;;;5089617;28;20206;-79
2022/11/29 11:42:39;;;;;;;49.10;27.13;;;6.20;1.00;;;;;;5091884;28;20202;-80
2022/11/29 11:45:29;;;;;;;43.20;24.10;;;6.20;1.00;;;;;;5084445;28;20195;-79
2022/11/29 11:47:59;;;;;;;48.50;27.10;;;6.10;1.00;;;;;;5075810;28;20674;-83
2022/11/29 11:50:29;;;;;;;47.77;26.23;;;6.10;1.00;;;;;;5085273;28;20230;-79
2022/11/29 11:52:59;;;;;;;48.20;27.07;;;6.10;1.00;;;;;;5074650;28;20203;-80
2022/11/29 11:55:33;;;;;;;50.07;26.90;;;6.10;1.00;;;;;;5075144;28;20199;-78
2022/11/29 11:58:16;;;;;;;47.90;27.67;;;6.00;1.00;;;;;;5074604;28;20279;-79
2022/11/29 12:00:48;;;;;;;50.73;28.47;;;6.00;1.00;;;;;;5074380;28;20661;-80
2022/11/29 12:03:33;;;;;;;47.50;27.13;;;5.90;1.00;;;;;;5086709;28;20651;-80
2022/11/29 12:06:12;;;;;;;48.27;27.50;;;5.80;1.00;;;;;;5092160;28;20200;-78
2022/11/29 12:08:41;;;;;;;49.60;26.90;;;5.80;1.00;;;;;;5090264;28;20262;-78
2022/11/29 12:11:10;;;;;;;49.07;27.67;;;5.80;1.00;;;;;;5093015;28;20191;-80
2022/11/29 12:13:42;;;;;;;51.00;26.93;;;5.80;1.00;;;;;;5089727;28;20241;-78
2022/11/29 12:16:14;;;;;;;48.17;26.83;;;5.70;1.00;;;;;;5092450;28;20263;-81
2022/11/29 12:18:48;;;;;;;47.97;28.20;;;5.70;1.00;;;;;;5086351;28;20194;-81
2022/11/29 12:21:16;;;;;;;53.87;29.00;;;5.70;1.00;;;;;;5074291;28;20238;-77
2022/11/29 12:23:52;;;;;;;51.77;28.73;;;5.60;1.00;;;;;;5074231;28;20640;-80
2022/11/29 12:26:23;;;;;;;49.77;27.30;;;5.60;1.00;;;;;;5092467;28;20226;-80
2022/11/29 12:28:51;;;;;;;50.10;26.20;;;5.60;1.00;;;;;;5092309;28;20339;-80
2022/11/29 12:31:37;;;;;;;50.97;28.63;;;5.50;1.00;;;;;;5092084;28;20252;-80
2022/11/29 12:34:19;;;;;;;51.87;29.07;;;5.50;1.00;;;;;;5086757;28;20189;-80
2022/11/29 12:36:54;;;;;;;51.87;28.43;;;5.40;1.00;;;;;;5087817;28;20215;-78
2022/11/29 12:39:43;;;;;;;49.87;27.30;;;5.40;1.00;;;;;;5076564;28;20226;-80
2022/11/29 12:42:18;;;;;;;49.53;25.83;;;5.40;1.00;;;;;;5074486;28;20193;-79
2022/11/29 12:44:56;;;;;;;52.73;28.60;;;5.40;1.00;;;;;;5073842;28;20236;-83
2022/11/29 12:47:32;;;;;;;52.13;28.27;;;5.40;1.00;;;;;;5073658;28;20191;-81
2022/11/29 12:50:10;;;;;;;53.47;26.57;;;5.30;1.00;;;;;;5073619;28;20220;-79
2022/11/29 12:52:47;;;;;;;50.10;26.90;;;5.40;1.00;;;;;;5074041;28;20186;-83
2022/11/29 12:55:23;;;;;;;51.70;26.43;;;5.40;1.00;;;;;;5073869;28;20197;-79
2022/11/29 12:58:00;;;;;;;53.43;29.60;;;5.40;1.00;;;;;;5073197;28;20205;-82
2022/11/29 13:00:32;;;;;;;49.80;27.00;;;5.30;1.00;;;;;;5079486;28;20188;-79
2022/11/29 13:03:11;;;;;;;55.23;29.93;;;5.30;1.00;;;;;;5091960;28;20189;-79
2022/11/29 13:05:51;;;;;;;49.00;26.47;;;5.30;1.00;;;;;;5076165;28;20595;-82
2022/11/29 13:08:49;;;;;;;56.87;29.17;;;5.20;1.00;;;;;;5077772;28;20237;-79
2022/11/29 13:11:23;;;;;;;50.17;27.23;;;5.20;1.20;;;;;;5078734;28;20212;-79
2022/11/29 13:13:55;;;;;;;49.10;28.37;;;5.20;1.00;;;;;;5091489;28;20592;-80
2022/11/29 13:16:35;;;;;;;53.17;29.03;;;5.20;1.00;;;;;;5090960;28;20201;-79
2022/11/29 13:19:10;;;;;;;57.47;29.43;;;5.10;1.00;;;;;;5085555;28;20249;-79
2022/11/29 13:21:43;;;;;;;55.03;30.67;;;5.10;1.00;;;;;;5088732;28;20191;-82
2022/11/29 13:24:16;;;;;;;54.53;29.93;;;5.10;1.00;;;;;;5082019;28;20604;-79
2022/11/29 13:26:45;;;;;;;52.43;29.47;;;5.00;1.00;;;;;;5084061;28;20584;-79